^^
Paulen-Weather Station Historical Data
Daily Summary for May 03, 2022 Units:  Metric    English   Both
Daily Weekly Monthly Yearly Custom
  High: Low: Average:
Temperature: 10 °C 6 °C 7.8 °C
Dew Point: 3 °C -1 °C 0.6 °C
Humidity: 65% 50% 60%
Wind Speed: 29km/h 12km/h 17.9km/h
Wind Gust: 24km/h - -
Wind- - ENE
Pressure: 1020.12 hPa 1014.02 hPa -
Precipitation: 0 mm    
Historical Graphs
 
 
Tabular Data for May 03, 2022
Time Temperature Dew Point Pressure Wind Wind Speed Wind Gust Humidity Rainfall Rate (Hourly) solar
00:04 9 °C 2 °C 1014.05 hPa NE 21 km/h 19 km/h 62% 0 mm 0 W/m2
00:09 9 °C 2 °C 1014.02 hPa NE 23 km/h 21 km/h 62% 0 mm 0 W/m2
00:14 8 °C 2 °C 1014.05 hPa NE 24 km/h 22 km/h 62% 0 mm 0 W/m2
00:19 8 °C 2 °C 1014.19 hPa NE 22 km/h 21 km/h 62% 0 mm 0 W/m2
00:24 8 °C 1 °C 1014.29 hPa NE 20 km/h 17 km/h 61% 0 mm 0 W/m2
00:29 8 °C 2 °C 1014.29 hPa NE 22 km/h 20 km/h 62% 0 mm 0 W/m2
00:34 8 °C 2 °C 1014.43 hPa NE 21 km/h 22 km/h 62% 0 mm 0 W/m2
00:39 8 °C 1 °C 1014.53 hPa NE 18 km/h 16 km/h 62% 0 mm 0 W/m2
00:44 8 °C 1 °C 1014.6 hPa NE 19 km/h 15 km/h 62% 0 mm 0 W/m2
00:49 8 °C 1 °C 1014.63 hPa NE 19 km/h 15 km/h 62% 0 mm 0 W/m2
00:54 8 °C 1 °C 1014.73 hPa NE 18 km/h 14 km/h 61% 0 mm 0 W/m2
00:59 8 °C 1 °C 1014.93 hPa ENE 18 km/h 15 km/h 61% 0 mm 0 W/m2
01:04 8 °C 1 °C 1014.93 hPa NE 19 km/h 17 km/h 59% 0 mm 0 W/m2
01:09 8 °C 1 °C 1014.93 hPa NE 17 km/h 13 km/h 61% 0 mm 0 W/m2
01:14 8 °C 1 °C 1015.04 hPa ENE 17 km/h 13 km/h 60% 0 mm 0 W/m2
01:19 8 °C 0 °C 1015.1 hPa ENE 17 km/h 19 km/h 59% 0 mm 0 W/m2
01:24 8 °C 0 °C 1015.07 hPa NE 14 km/h 11 km/h 59% 0 mm 0 W/m2
01:29 8 °C 1 °C 1015.17 hPa NE 14 km/h 11 km/h 60% 0 mm 0 W/m2
01:34 8 °C 0 °C 1015.21 hPa NE 14 km/h 13 km/h 59% 0 mm 0 W/m2
01:39 8 °C 0 °C 1015.24 hPa NE 14 km/h 15 km/h 59% 0 mm 0 W/m2
01:44 8 °C 0 °C 1015.34 hPa NE 16 km/h 15 km/h 59% 0 mm 0 W/m2
01:49 7 °C 0 °C 1015.34 hPa NE 17 km/h 14 km/h 59% 0 mm 0 W/m2
01:54 7 °C 0 °C 1015.34 hPa NE 19 km/h 17 km/h 60% 0 mm 0 W/m2
01:59 7 °C 0 °C 1015.41 hPa NE 19 km/h 17 km/h 59% 0 mm 0 W/m2
02:04 7 °C 0 °C 1015.44 hPa NE 19 km/h 16 km/h 59% 0 mm 0 W/m2
02:09 7 °C 0 °C 1015.44 hPa NE 18 km/h 16 km/h 60% 0 mm 0 W/m2
02:14 7 °C 0 °C 1015.48 hPa NE 17 km/h 14 km/h 60% 0 mm 0 W/m2
02:19 7 °C 0 °C 1015.51 hPa NE 17 km/h 16 km/h 61% 0 mm 0 W/m2
02:24 7 °C 0 °C 1015.61 hPa NE 17 km/h 16 km/h 60% 0 mm 0 W/m2
02:29 7 °C 0 °C 1015.58 hPa NE 18 km/h 13 km/h 61% 0 mm 0 W/m2
02:34 7 °C 0 °C 1015.65 hPa NE 16 km/h 14 km/h 61% 0 mm 0 W/m2
02:39 7 °C 0 °C 1015.75 hPa NE 17 km/h 13 km/h 59% 0 mm 0 W/m2
02:44 7 °C 0 °C 1015.75 hPa NE 16 km/h 13 km/h 60% 0 mm 0 W/m2
02:49 7 °C 0 °C 1015.75 hPa NE 17 km/h 14 km/h 60% 0 mm 0 W/m2
02:54 7 °C 0 °C 1015.85 hPa NE 18 km/h 14 km/h 59% 0 mm 0 W/m2
02:59 7 °C 0 °C 1015.85 hPa NE 16 km/h 13 km/h 59% 0 mm 0 W/m2
03:04 7 °C 0 °C 1015.85 hPa NE 15 km/h 13 km/h 60% 0 mm 0 W/m2
03:09 7 °C 0 °C 1015.85 hPa NE 15 km/h 13 km/h 60% 0 mm 0 W/m2
03:14 7 °C 0 °C 1015.95 hPa NE 15 km/h 12 km/h 60% 0 mm 0 W/m2
03:19 7 °C 0 °C 1016.02 hPa NE 14 km/h 13 km/h 59% 0 mm 0 W/m2
03:24 7 °C 0 °C 1016.09 hPa NE 14 km/h 11 km/h 59% 0 mm 0 W/m2
03:29 7 °C 0 °C 1016.09 hPa NE 13 km/h 11 km/h 60% 0 mm 0 W/m2
03:34 7 °C -1 °C 1016.19 hPa NE 16 km/h 12 km/h 59% 0 mm 0 W/m2
03:39 7 °C -1 °C 1016.19 hPa NE 18 km/h 14 km/h 59% 0 mm 0 W/m2
03:44 7 °C -1 °C 1016.19 hPa NE 15 km/h 14 km/h 59% 0 mm 0 W/m2
03:49 7 °C -1 °C 1016.29 hPa NE 15 km/h 14 km/h 60% 0 mm 0 W/m2
03:54 7 °C -1 °C 1016.36 hPa NE 14 km/h 11 km/h 60% 0 mm 0 W/m2
03:59 7 °C -1 °C 1016.39 hPa NE 17 km/h 15 km/h 59% 0 mm 0 W/m2
04:04 6 °C -1 °C 1016.42 hPa NE 17 km/h 15 km/h 59% 0 mm 0 W/m2
04:09 6 °C -1 °C 1016.49 hPa NE 15 km/h 13 km/h 60% 0 mm 0 W/m2
04:14 6 °C -1 °C 1016.49 hPa NE 13 km/h 12 km/h 60% 0 mm 0 W/m2
04:19 6 °C 0 °C 1016.56 hPa NE 14 km/h 13 km/h 62% 0 mm 0 W/m2
04:24 6 °C -1 °C 1016.63 hPa NE 12 km/h 11 km/h 60% 0 mm 0 W/m2
04:29 6 °C -1 °C 1016.66 hPa NE 13 km/h 12 km/h 61% 0 mm 0 W/m2
04:34 6 °C -1 °C 1016.73 hPa NE 15 km/h 14 km/h 60% 0 mm 0 W/m2
04:39 6 °C -1 °C 1016.8 hPa NE 15 km/h 13 km/h 61% 0 mm 0 W/m2
04:44 6 °C -1 °C 1016.86 hPa NE 14 km/h 12 km/h 61% 0 mm 0 W/m2
04:49 6 °C -1 °C 1016.86 hPa NE 17 km/h 14 km/h 61% 0 mm 0 W/m2
04:54 6 °C -1 °C 1016.93 hPa NE 16 km/h 12 km/h 61% 0 mm 0 W/m2
04:59 6 °C -1 °C 1016.93 hPa NE 14 km/h 11 km/h 61% 0 mm 0 W/m2
05:04 6 °C -1 °C 1016.97 hPa NE 15 km/h 12 km/h 62% 0 mm 0 W/m2
05:09 6 °C -1 °C 1016.97 hPa NE 15 km/h 13 km/h 62% 0 mm 0 W/m2
05:14 6 °C -1 °C 1017.03 hPa NE 14 km/h 11 km/h 61% 0 mm 0 W/m2
05:19 6 °C 0 °C 1017.07 hPa ENE 17 km/h 15 km/h 62% 0 mm 0 W/m2
05:24 6 °C -1 °C 1017.14 hPa ENE 18 km/h 15 km/h 61% 0 mm 5 W/m2
05:29 6 °C -1 °C 1017.17 hPa ENE 20 km/h 18 km/h 60% 0 mm 7 W/m2
05:34 6 °C -1 °C 1017.24 hPa NE 16 km/h 13 km/h 60% 0 mm 9 W/m2
05:39 6 °C -1 °C 1017.27 hPa NE 16 km/h 16 km/h 60% 0 mm 14 W/m2
05:44 6 °C -1 °C 1017.34 hPa ENE 18 km/h 16 km/h 59% 0 mm 21 W/m2
05:49 6 °C -1 °C 1017.37 hPa ENE 17 km/h 13 km/h 60% 0 mm 26 W/m2
05:54 6 °C -1 °C 1017.44 hPa NE 16 km/h 13 km/h 60% 0 mm 33 W/m2
05:59 6 °C 0 °C 1017.51 hPa NE 14 km/h 12 km/h 62% 0 mm 42 W/m2
06:04 6 °C 0 °C 1017.58 hPa ENE 18 km/h 16 km/h 61% 0 mm 53 W/m2
06:09 7 °C 0 °C 1017.64 hPa NE 17 km/h 15 km/h 61% 0 mm 63 W/m2
06:14 7 °C 0 °C 1017.71 hPa ENE 18 km/h 17 km/h 60% 0 mm 76 W/m2
06:19 7 °C 0 °C 1017.78 hPa ENE 19 km/h 19 km/h 61% 0 mm 84 W/m2
06:24 7 °C 0 °C 1017.88 hPa ENE 18 km/h 17 km/h 63% 0 mm 95 W/m2
06:29 7 °C 0 °C 1017.91 hPa ENE 17 km/h 15 km/h 62% 0 mm 100 W/m2
06:34 7 °C 0 °C 1017.91 hPa ENE 18 km/h 15 km/h 61% 0 mm 111 W/m2
06:39 7 °C 0 °C 1017.98 hPa ENE 18 km/h 17 km/h 61% 0 mm 111 W/m2
06:44 7 °C 0 °C 1017.98 hPa ENE 18 km/h 16 km/h 62% 0 mm 113 W/m2
06:49 7 °C 0 °C 1018.05 hPa ENE 17 km/h 14 km/h 63% 0 mm 132 W/m2
06:54 7 °C 0 °C 1018.12 hPa ENE 17 km/h 16 km/h 60% 0 mm 141 W/m2
06:59 7 °C 0 °C 1018.12 hPa ENE 18 km/h 19 km/h 63% 0 mm 155 W/m2
07:04 7 °C 0 °C 1018.22 hPa ENE 19 km/h 19 km/h 62% 0 mm 160 W/m2
07:09 7 °C 0 °C 1018.25 hPa ENE 19 km/h 18 km/h 62% 0 mm 167 W/m2
07:14 7 °C 0 °C 1018.32 hPa ENE 19 km/h 17 km/h 62% 0 mm 179 W/m2
07:19 7 °C 0 °C 1018.35 hPa ENE 19 km/h 17 km/h 62% 0 mm 192 W/m2
07:24 7 °C 0 °C 1018.49 hPa ENE 20 km/h 18 km/h 62% 0 mm 200 W/m2
07:29 7 °C 0 °C 1018.52 hPa ENE 18 km/h 18 km/h 61% 0 mm 213 W/m2
07:34 7 °C 0 °C 1018.59 hPa ENE 19 km/h 16 km/h 61% 0 mm 223 W/m2
07:39 7 °C 0 °C 1018.66 hPa ENE 20 km/h 19 km/h 59% 0 mm 236 W/m2
07:44 7 °C 0 °C 1018.69 hPa ENE 21 km/h 20 km/h 59% 0 mm 246 W/m2
07:49 7 °C 0 °C 1018.69 hPa ENE 20 km/h 19 km/h 59% 0 mm 257 W/m2
07:54 7 °C 0 °C 1018.73 hPa ENE 22 km/h 21 km/h 58% 0 mm 267 W/m2
07:59 7 °C 0 °C 1018.8 hPa ENE 21 km/h 19 km/h 59% 0 mm 281 W/m2
08:04 7 °C 0 °C 1018.83 hPa ENE 23 km/h 21 km/h 58% 0 mm 294 W/m2
08:09 8 °C 0 °C 1018.86 hPa ENE 21 km/h 20 km/h 57% 0 mm 304 W/m2
08:14 8 °C 0 °C 1018.9 hPa ENE 21 km/h 20 km/h 57% 0 mm 311 W/m2
08:19 8 °C 0 °C 1018.9 hPa ENE 19 km/h 18 km/h 59% 0 mm 320 W/m2
08:24 8 °C 0 °C 1018.9 hPa ENE 17 km/h 16 km/h 58% 0 mm 336 W/m2
08:29 8 °C 0 °C 1018.96 hPa ENE 16 km/h 16 km/h 57% 0 mm 350 W/m2
08:34 8 °C 0 °C 1019.03 hPa ENE 15 km/h 14 km/h 57% 0 mm 350 W/m2
08:39 9 °C 0 °C 1019.1 hPa ENE 18 km/h 20 km/h 55% 0 mm 359 W/m2
08:44 9 °C -1 °C 1019.17 hPa E 22 km/h 18 km/h 51% 0 mm 380 W/m2
08:49 9 °C -1 °C 1019.2 hPa ENE 21 km/h 20 km/h 50% 0 mm 385 W/m2
08:54 9 °C 0 °C 1019.2 hPa E 22 km/h 20 km/h 51% 0 mm 408 W/m2
08:59 9 °C 0 °C 1019.3 hPa E 20 km/h 18 km/h 52% 0 mm 422 W/m2
09:04 9 °C 0 °C 1019.27 hPa ENE 23 km/h 21 km/h 50% 0 mm 431 W/m2
09:09 9 °C 0 °C 1019.4 hPa E 22 km/h 18 km/h 51% 0 mm 438 W/m2
09:14 9 °C 0 °C 1019.4 hPa E 22 km/h 19 km/h 52% 0 mm 448 W/m2
09:19 9 °C 0 °C 1019.47 hPa ENE 25 km/h 20 km/h 52% 0 mm 457 W/m2
09:24 9 °C 0 °C 1019.51 hPa ENE 22 km/h 19 km/h 51% 0 mm 466 W/m2
09:29 9 °C 0 °C 1019.54 hPa ENE 24 km/h 21 km/h 51% 0 mm 478 W/m2
09:38 9 °C 0 °C 1019.57 hPa ENE 29 km/h 24 km/h 53% 0 mm 499 W/m2
09:44 9 °C 1 °C 1019.57 hPa ENE 22 km/h 18 km/h 54% 0 mm 512 W/m2
09:49 9 °C 1 °C 1019.64 hPa E 25 km/h 23 km/h 55% 0 mm 520 W/m2
09:54 9 °C 1 °C 1019.68 hPa E 21 km/h 18 km/h 56% 0 mm 529 W/m2
09:59 10 °C 2 °C 1019.71 hPa E 17 km/h 15 km/h 58% 0 mm 541 W/m2
10:04 10 °C 1 °C 1019.71 hPa E 20 km/h 17 km/h 57% 0 mm 550 W/m2
10:09 9 °C 1 °C 1019.78 hPa E 20 km/h 17 km/h 57% 0 mm 559 W/m2
10:14 9 °C 1 °C 1019.71 hPa E 18 km/h 15 km/h 56% 0 mm 568 W/m2
10:19 9 °C 1 °C 1019.74 hPa E 21 km/h 16 km/h 57% 0 mm 575 W/m2
10:24 9 °C 2 °C 1019.81 hPa E 20 km/h 16 km/h 58% 0 mm 585 W/m2
10:29 9 °C 2 °C 1019.81 hPa E 19 km/h 17 km/h 58% 0 mm 596 W/m2
10:34 9 °C 1 °C 1019.81 hPa ENE 22 km/h 20 km/h 57% 0 mm 596 W/m2
10:39 9 °C 2 °C 1019.81 hPa E 21 km/h 18 km/h 58% 0 mm 610 W/m2
10:44 9 °C 1 °C 1019.81 hPa E 21 km/h 16 km/h 58% 0 mm 619 W/m2
10:49 9 °C 2 °C 1019.88 hPa E 21 km/h 18 km/h 60% 0 mm 624 W/m2
10:54 9 °C 2 °C 1019.88 hPa ESE 20 km/h 16 km/h 58% 0 mm 631 W/m2
10:59 9 °C 2 °C 1019.91 hPa ESE 19 km/h 17 km/h 58% 0 mm 640 W/m2
11:04 9 °C 1 °C 1019.91 hPa E 20 km/h 18 km/h 57% 0 mm 647 W/m2
11:09 9 °C 1 °C 1019.95 hPa E 19 km/h 18 km/h 57% 0 mm 654 W/m2
11:14 9 °C 1 °C 1020.01 hPa E 18 km/h 15 km/h 57% 0 mm 661 W/m2
11:19 9 °C 2 °C 1020.01 hPa ENE 18 km/h 15 km/h 57% 0 mm 666 W/m2
11:24 9 °C 2 °C 1020.01 hPa E 18 km/h 17 km/h 58% 0 mm 673 W/m2
11:29 9 °C 2 °C 1020.08 hPa E 19 km/h 16 km/h 58% 0 mm 679 W/m2
11:34 9 °C 2 °C 1020.12 hPa E 19 km/h 15 km/h 59% 0 mm 684 W/m2
11:39 9 °C 2 °C 1020.12 hPa ESE 18 km/h 14 km/h 60% 0 mm 687 W/m2
11:44 9 °C 2 °C 1020.08 hPa E 18 km/h 16 km/h 60% 0 mm 693 W/m2
11:49 9 °C 2 °C 1020.08 hPa E 18 km/h 14 km/h 60% 0 mm 696 W/m2
11:54 9 °C 2 °C 1020.08 hPa ESE 19 km/h 16 km/h 60% 0 mm 700 W/m2
11:59 9 °C 2 °C 1020.08 hPa ESE 17 km/h 15 km/h 62% 0 mm 707 W/m2
12:04 9 °C 2 °C 1020.05 hPa E 18 km/h 17 km/h 61% 0 mm 710 W/m2
12:09 9 °C 2 °C 1020.08 hPa ESE 18 km/h 16 km/h 61% 0 mm 715 W/m2
12:14 9 °C 2 °C 1020.05 hPa ESE 19 km/h 16 km/h 60% 0 mm 719 W/m2
12:19 9 °C 2 °C 1020.01 hPa ESE 17 km/h 17 km/h 62% 0 mm 722 W/m2
12:24 9 °C 2 °C 1020.08 hPa E 18 km/h 16 km/h 61% 0 mm 724 W/m2
12:29 9 °C 2 °C 1020.08 hPa ESE 18 km/h 16 km/h 62% 0 mm 728 W/m2
12:34 9 °C 2 °C 1020.08 hPa E 17 km/h 16 km/h 62% 0 mm 729 W/m2
12:39 9 °C 2 °C 1020.08 hPa E 16 km/h 14 km/h 61% 0 mm 731 W/m2
12:44 9 °C 2 °C 1020.01 hPa E 15 km/h 15 km/h 60% 0 mm 737 W/m2
12:49 9 °C 2 °C 1019.98 hPa E 15 km/h 15 km/h 60% 0 mm 737 W/m2
12:54 9 °C 2 °C 1019.98 hPa E 16 km/h 14 km/h 59% 0 mm 738 W/m2
12:59 9 °C 2 °C 1019.95 hPa ESE 16 km/h 13 km/h 60% 0 mm 740 W/m2
13:04 9 °C 2 °C 1019.88 hPa ESE 17 km/h 14 km/h 60% 0 mm 740 W/m2
13:09 9 °C 2 °C 1019.88 hPa ESE 15 km/h 14 km/h 61% 0 mm 740 W/m2
13:14 9 °C 2 °C 1019.88 hPa SE 17 km/h 14 km/h 61% 0 mm 744 W/m2
13:19 9 °C 2 °C 1019.88 hPa ESE 16 km/h 14 km/h 62% 0 mm 744 W/m2
13:24 9 °C 3 °C 1019.84 hPa SE 15 km/h 13 km/h 62% 0 mm 744 W/m2
13:29 9 °C 2 °C 1019.84 hPa ESE 17 km/h 15 km/h 61% 0 mm 745 W/m2
13:34 9 °C 3 °C 1019.74 hPa SE 13 km/h 12 km/h 62% 0 mm 745 W/m2
13:39 9 °C 3 °C 1019.78 hPa E 17 km/h 13 km/h 62% 0 mm 747 W/m2
13:44 9 °C 3 °C 1019.78 hPa SE 16 km/h 15 km/h 62% 0 mm 747 W/m2
13:49 9 °C 3 °C 1019.74 hPa SE 16 km/h 13 km/h 63% 0 mm 747 W/m2
13:54 9 °C 3 °C 1019.71 hPa SE 15 km/h 13 km/h 63% 0 mm 751 W/m2
13:59 9 °C 3 °C 1019.61 hPa SE 18 km/h 17 km/h 63% 0 mm 751 W/m2
14:04 9 °C 3 °C 1019.64 hPa SE 18 km/h 15 km/h 64% 0 mm 738 W/m2
14:09 9 °C 3 °C 1019.64 hPa SE 16 km/h 16 km/h 64% 0 mm 737 W/m2
14:14 9 °C 3 °C 1019.54 hPa SE 20 km/h 18 km/h 65% 0 mm 737 W/m2
14:19 9 °C 3 °C 1019.54 hPa ESE 19 km/h 16 km/h 63% 0 mm 733 W/m2
Compliments of Weather Underground - 2 mb